Time;durP1;ratioP1;P1;durP2;ratioP2;P2;SDS_P1;SDS_P2;PMS_P1;PMS_P2;Temp;Humidity;BMP_temperature;BMP_pressure;BME280_temperature;BME280_humidity;BME280_pressure;Samples;Min_cycle;Max_cycle;Signal;HPM_P1;HPM_P2
2021/05/03 00:01:26;;;;;;;0.00;0.00;;;;;;;6.74;66.07;99504.09;5072917;28;20457;-77
2021/05/03 00:03:52;;;;;;;0.10;0.10;;;;;;;6.75;66.13;99493.44;5107469;28;20047;-75
2021/05/03 00:06:20;;;;;;;0.08;0.08;;;;;;;6.76;66.12;99499.56;5108305;28;20044;-76
2021/05/03 00:08:47;;;;;;;0.35;0.35;;;;;;;6.75;66.02;99500.50;5108439;28;20183;-78
2021/05/03 00:11:14;;;;;;;0.00;0.00;;;;;;;6.76;66.08;99495.16;5107621;28;20142;-78
2021/05/03 00:13:41;;;;;;;0.75;0.75;;;;;;;6.76;66.07;99500.38;5107987;28;20138;-78
2021/05/03 00:16:07;;;;;;;0.00;0.00;;;;;;;6.77;65.93;99514.34;5108110;28;20048;-78
2021/05/03 00:18:34;;;;;;;0.10;0.10;;;;;;;6.81;65.99;99502.72;5111783;28;20040;-78
2021/05/03 00:21:01;;;;;;;0.20;0.20;;;;;;;6.82;66.00;99520.13;5113369;28;20048;-79
2021/05/03 00:23:29;;;;;;;0.25;0.25;;;;;;;6.82;65.98;99517.50;5122148;28;20028;-78
2021/05/03 00:25:58;;;;;;;0.20;0.20;;;;;;;6.83;65.90;99532.31;5083060;28;20138;-80
2021/05/03 00:28:24;;;;;;;0.10;0.10;;;;;;;6.86;66.04;99522.44;5115742;28;20487;-79
2021/05/03 00:30:51;;;;;;;0.10;0.10;;;;;;;6.87;65.98;99518.84;5112378;28;20077;-81
2021/05/03 00:33:18;;;;;;;0.03;0.03;;;;;;;6.86;65.76;99529.47;5112872;28;20058;-79
2021/05/03 00:35:44;;;;;;;0.00;0.00;;;;;;;6.84;65.81;99533.97;5111842;28;20058;-76
2021/05/03 00:38:11;;;;;;;0.00;0.00;;;;;;;6.86;66.08;99540.81;5111637;28;20051;-76
2021/05/03 00:40:38;;;;;;;0.00;0.00;;;;;;;6.88;65.99;99536.31;5111301;28;20052;-77
2021/05/03 00:43:05;;;;;;;0.10;0.10;;;;;;;6.87;65.85;99549.53;5093012;28;20050;-75
2021/05/03 00:45:33;;;;;;;0.20;0.20;;;;;;;6.85;65.67;99543.53;5108807;28;20047;-74
2021/05/03 00:48:00;;;;;;;0.10;0.10;;;;;;;6.84;65.79;99536.59;5111058;28;20047;-80
2021/05/03 00:50:30;;;;;;;0.00;0.00;;;;;;;6.84;65.93;99549.72;5111567;28;20048;-81
2021/05/03 00:52:57;;;;;;;0.00;0.00;;;;;;;6.83;65.87;99554.16;5093764;28;20097;-78
2021/05/03 00:55:24;;;;;;;0.57;0.57;;;;;;;6.86;66.14;99547.84;5094782;28;20058;-78
2021/05/03 00:57:52;;;;;;;0.22;0.22;;;;;;;6.89;65.59;99550.25;5114306;28;20399;-77
2021/05/03 01:00:19;;;;;;;0.10;0.10;;;;;;;6.86;65.42;99564.44;5112905;28;20060;-78
2021/05/03 01:02:47;;;;;;;0.08;0.08;;;;;;;6.85;65.23;99552.25;5112759;28;20104;-81
2021/05/03 01:05:14;;;;;;;0.10;0.10;;;;;;;6.86;65.29;99546.06;5111847;28;20509;-79
2021/05/03 01:07:41;;;;;;;0.10;0.10;;;;;;;6.83;65.06;99561.19;5111462;28;20051;-79
2021/05/03 01:10:08;;;;;;;0.20;0.20;;;;;;;6.80;65.16;99569.25;5122969;28;20058;-77
2021/05/03 01:12:37;;;;;;;0.30;0.30;;;;;;;6.79;65.04;99572.81;5128906;28;20092;-79
2021/05/03 01:15:06;;;;;;;0.00;0.00;;;;;;;6.78;65.28;99574.63;5121670;28;20125;-79
2021/05/03 01:17:33;;;;;;;0.00;0.00;;;;;;;6.78;65.49;99566.75;5113876;28;20044;-77
2021/05/03 01:20:08;;;;;;;0.10;0.10;;;;;;;6.79;65.51;99572.81;5115481;28;20043;-78
2021/05/03 01:22:36;;;;;;;0.10;0.10;;;;;;;6.79;65.40;99583.31;5116131;28;20143;-80
2021/05/03 01:25:08;;;;;;;0.00;0.00;;;;;;;6.77;65.45;99580.81;5114932;28;20055;-76
2021/05/03 01:27:35;;;;;;;0.47;0.47;;;;;;;6.76;65.60;99579.13;5113173;28;20047;-79
2021/05/03 01:30:02;;;;;;;0.55;0.55;;;;;;;6.75;65.54;99587.09;5113055;28;20129;-78
2021/05/03 01:32:29;;;;;;;7.68;1.45;;;;;;;6.77;65.56;99585.22;5097686;28;20460;-80
2021/05/03 01:34:56;;;;;;;0.10;0.10;;;;;;;6.77;65.59;99582.59;5111185;28;20039;-74
2021/05/03 01:37:23;;;;;;;0.10;0.10;;;;;;;6.78;65.58;99600.03;5109798;28;20417;-77
2021/05/03 01:39:52;;;;;;;0.30;0.30;;;;;;;6.81;65.59;99598.03;5110707;28;20062;-76
2021/05/03 01:42:22;;;;;;;0.10;0.10;;;;;;;6.83;65.58;99605.81;5111617;28;20104;-74
2021/05/03 01:44:49;;;;;;;0.00;0.00;;;;;;;6.90;65.63;99612.34;5114283;28;20044;-80
2021/05/03 01:47:16;;;;;;;2.20;0.88;;;;;;;6.94;65.62;99615.59;5109883;28;20056;-77
2021/05/03 01:49:42;;;;;;;0.20;0.20;;;;;;;6.85;65.73;99615.25;5110216;28;20048;-77
2021/05/03 01:52:12;;;;;;;0.10;0.10;;;;;;;6.84;65.71;99605.72;5110949;28;20054;-76
2021/05/03 01:54:38;;;;;;;0.10;0.10;;;;;;;6.83;65.82;99616.31;5112673;28;20043;-78
2021/05/03 01:57:07;;;;;;;0.30;0.30;;;;;;;6.83;65.84;99613.69;5111001;28;20054;-78
2021/05/03 01:59:34;;;;;;;0.10;0.10;;;;;;;6.85;65.94;99617.03;5095853;28;20055;-79
2021/05/03 02:02:03;;;;;;;0.00;0.00;;;;;;;6.83;65.98;99622.41;5097927;28;20074;-85
2021/05/03 02:04:29;;;;;;;0.08;0.08;;;;;;;6.82;65.59;99617.25;5092500;28;20055;-74
2021/05/03 02:06:56;;;;;;;0.00;0.00;;;;;;;6.77;65.79;99619.31;5109486;28;20043;-77
2021/05/03 02:09:22;;;;;;;0.05;0.05;;;;;;;6.75;65.69;99608.94;5109775;28;20044;-74
2021/05/03 02:11:49;;;;;;;0.90;0.90;;;;;;;6.72;65.68;99618.78;5110341;28;20047;-74
2021/05/03 02:14:16;;;;;;;0.10;0.10;;;;;;;6.73;65.83;99612.63;5110448;28;20414;-75
2021/05/03 02:16:43;;;;;;;0.00;0.00;;;;;;;6.73;65.70;99610.81;5108409;28;20494;-77
2021/05/03 02:19:09;;;;;;;0.10;0.10;;;;;;;6.72;65.61;99621.41;5108676;28;20096;-74
2021/05/03 02:21:36;;;;;;;0.10;0.10;;;;;;;6.69;65.48;99619.84;5109442;28;20050;-74
2021/05/03 02:24:04;;;;;;;0.10;0.10;;;;;;;6.67;65.67;99617.31;5110828;28;20055;-74
2021/05/03 02:26:30;;;;;;;0.10;0.10;;;;;;;6.68;65.64;99624.25;5110313;28;20100;-75
2021/05/03 02:28:57;;;;;;;0.10;0.10;;;;;;;6.66;65.59;99620.03;5109972;28;20124;-74
2021/05/03 02:31:24;;;;;;;1.20;1.20;;;;;;;6.64;65.53;99614.91;5108749;28;20052;-76
2021/05/03 02:33:50;;;;;;;0.00;0.00;;;;;;;6.65;65.54;99624.47;5109722;28;20040;-74
2021/05/03 02:36:18;;;;;;;0.00;0.00;;;;;;;6.67;65.37;99627.00;5109434;28;20044;-74
2021/05/03 02:38:45;;;;;;;0.00;0.00;;;;;;;6.67;65.22;99621.75;5109570;28;20044;-75
2021/05/03 02:41:11;;;;;;;0.82;0.77;;;;;;;6.66;65.32;99620.91;5109508;28;20051;-73
2021/05/03 02:43:38;;;;;;;0.10;0.10;;;;;;;6.67;65.31;99632.25;5108236;28;20058;-73
2021/05/03 02:46:06;;;;;;;0.10;0.10;;;;;;;6.68;65.32;99642.63;5107689;28;20054;-78
2021/05/03 02:48:34;;;;;;;0.00;0.00;;;;;;;6.70;65.45;99642.53;5110153;28;20091;-77
2021/05/03 02:51:00;;;;;;;0.10;0.10;;;;;;;6.69;65.17;99656.59;5109786;28;20047;-76
2021/05/03 02:53:27;;;;;;;0.10;0.10;;;;;;;6.68;65.26;99655.75;5110865;28;20051;-76
2021/05/03 02:55:53;;;;;;;0.10;0.10;;;;;;;6.68;65.39;99668.88;5110322;28;20422;-77
2021/05/03 02:58:20;;;;;;;0.10;0.10;;;;;;;6.65;65.33;99666.44;5110070;28;20054;-80
2021/05/03 03:00:47;;;;;;;0.00;0.00;;;;;;;6.66;65.37;99676.00;5111647;28;20088;-75
2021/05/03 03:03:13;;;;;;;0.00;0.00;;;;;;;6.76;65.56;99672.78;5116494;28;20051;-78
2021/05/03 03:05:40;;;;;;;0.00;0.00;;;;;;;6.79;65.52;99664.69;5112640;28;20051;-77
2021/05/03 03:08:07;;;;;;;0.10;0.10;;;;;;;6.76;65.52;99676.25;5110645;28;20574;-78
2021/05/03 03:10:34;;;;;;;0.10;0.08;;;;;;;6.78;65.72;99684.03;5114570;28;20055;-84
2021/05/03 03:13:03;;;;;;;0.10;0.10;;;;;;;6.77;65.52;99683.19;5093681;28;20044;-83
2021/05/03 03:15:34;;;;;;;0.30;0.30;;;;;;;6.80;65.69;99700.50;5113370;28;20072;-83
2021/05/03 03:18:05;;;;;;;1.00;1.00;;;;;;;6.77;65.57;99695.44;5117315;28;20050;-81
2021/05/03 03:20:31;;;;;;;0.35;0.35;;;;;;;6.78;65.66;99700.59;5101584;28;20043;-75
2021/05/03 03:22:59;;;;;;;0.30;0.30;;;;;;;6.80;65.59;99697.88;5110223;28;20050;-81
2021/05/03 03:25:26;;;;;;;0.00;0.00;;;;;;;6.75;65.54;99697.34;5110006;28;20039;-78
2021/05/03 03:27:57;;;;;;;0.10;0.10;;;;;;;6.74;65.68;99700.91;5092621;28;20289;-76
2021/05/03 03:30:24;;;;;;;0.10;0.10;;;;;;;6.67;65.97;99708.34;5109131;28;20083;-76
2021/05/03 03:32:51;;;;;;;0.10;0.10;;;;;;;6.66;65.92;99704.03;5096445;28;20055;-78
2021/05/03 03:35:21;;;;;;;0.05;0.05;;;;;;;6.74;65.31;99711.41;5092597;28;20630;-77
2021/05/03 03:37:53;;;;;;;0.00;0.00;;;;;;;6.70;65.81;99711.59;5109708;28;20092;-77
2021/05/03 03:40:21;;;;;;;0.00;0.00;;;;;;;6.73;65.89;99720.22;5109428;28;20045;-77
2021/05/03 03:42:48;;;;;;;0.10;0.10;;;;;;;6.71;65.99;99717.69;5108841;28;20047;-78
2021/05/03 03:45:17;;;;;;;0.10;0.10;;;;;;;6.74;65.89;99724.53;5091349;28;20063;-77
2021/05/03 03:47:45;;;;;;;0.47;0.47;;;;;;;6.70;65.79;99718.66;5089921;28;20119;-77
2021/05/03 03:50:13;;;;;;;0.10;0.10;;;;;;;6.72;65.75;99723.78;5074209;28;20048;-76
2021/05/03 03:52:41;;;;;;;0.10;0.10;;;;;;;6.73;65.82;99726.28;5091359;28;20080;-78
2021/05/03 03:55:09;;;;;;;0.00;0.00;;;;;;;6.76;65.64;99730.53;5108258;28;20047;-81
2021/05/03 03:57:37;;;;;;;0.25;0.25;;;;;;;6.80;65.77;99734.63;5109001;28;20069;-77
2021/05/03 04:00:08;;;;;;;0.08;0.08;;;;;;;6.82;65.72;99722.25;5109084;28;20056;-79
2021/05/03 04:02:35;;;;;;;0.10;0.10;;;;;;;6.81;65.55;99733.69;5108187;28;20685;-75
2021/05/03 04:05:11;;;;;;;0.10;0.10;;;;;;;6.91;65.76;99728.66;5108844;28;20043;-79
2021/05/03 04:07:42;;;;;;;0.10;0.10;;;;;;;6.98;65.58;99730.78;5108897;28;20052;-77
2021/05/03 04:10:19;;;;;;;0.00;0.00;;;;;;;6.98;65.35;99738.66;5106804;28;20459;-77
2021/05/03 04:13:20;;;;;;;0.10;0.10;;;;;;;7.01;65.31;99740.25;5089711;28;20108;-78
2021/05/03 04:21:22;;;;;;;0.08;0.08;;;;;;;7.03;64.77;99746.25;5114862;28;20063;-82
2021/05/03 04:24:05;;;;;;;0.20;0.20;;;;;;;7.07;64.94;99742.47;5086781;28;20082;-84
2021/05/03 04:26:33;;;;;;;0.10;0.10;;;;;;;7.16;64.70;99751.53;5107663;28;20056;-82
2021/05/03 04:29:01;;;;;;;0.00;0.00;;;;;;;7.14;64.73;99758.66;5110947;28;20054;-82
2021/05/03 04:31:27;;;;;;;0.10;0.10;;;;;;;7.17;64.91;99756.69;5111168;28;20052;-75
2021/05/03 04:33:54;;;;;;;0.10;0.10;;;;;;;7.23;64.59;99772.03;5109557;28;20044;-79
2021/05/03 04:36:21;;;;;;;0.17;0.17;;;;;;;7.29;64.56;99776.03;5109351;28;20044;-78
2021/05/03 04:38:48;;;;;;;0.10;0.10;;;;;;;7.31;64.55;99776.78;5109150;28;20051;-78
2021/05/03 04:41:16;;;;;;;0.65;0.65;;;;;;;7.30;63.86;99769.84;5107897;28;20059;-77
2021/05/03 04:43:43;;;;;;;0.00;0.00;;;;;;;7.30;64.05;99772.47;5109696;28;20136;-78
2021/05/03 04:46:11;;;;;;;0.10;0.10;;;;;;;7.28;63.64;99775.19;5108838;28;20048;-76
2021/05/03 04:48:38;;;;;;;0.22;0.22;;;;;;;7.25;63.60;99775.38;5110991;28;20453;-77
2021/05/03 04:51:05;;;;;;;0.10;0.10;;;;;;;7.28;63.64;99782.25;5075548;28;20047;-81
2021/05/03 04:53:32;;;;;;;0.10;0.10;;;;;;;7.31;63.01;99779.41;5113799;28;20058;-81
2021/05/03 04:55:59;;;;;;;0.00;0.00;;;;;;;7.32;62.65;99767.13;5076837;28;20048;-76
2021/05/03 04:58:28;;;;;;;0.00;0.00;;;;;;;7.34;62.41;99771.31;5111109;28;20043;-80
2021/05/03 05:00:55;;;;;;;0.20;0.20;;;;;;;7.39;62.43;99771.00;5114026;28;20067;-79
2021/05/03 05:03:23;;;;;;;1.23;1.23;;;;;;;7.45;62.29;99778.47;5111935;28;20052;-81
2021/05/03 05:05:51;;;;;;;0.10;0.10;;;;;;;7.49;61.98;99789.63;5095225;28;20726;-79
2021/05/03 05:08:18;;;;;;;1.27;1.27;;;;;;;7.61;62.12;99780.91;5118564;28;20440;-81
2021/05/03 05:10:45;;;;;;;0.10;0.10;;;;;;;7.71;61.96;99781.97;5121519;27;20048;-75
2021/05/03 05:13:12;;;;;;;0.10;0.10;;;;;;;7.82;62.04;99779.44;5116492;28;20092;-75
2021/05/03 05:15:40;;;;;;;0.10;0.10;;;;;;;8.04;61.92;99788.50;5114492;28;20050;-77
2021/05/03 05:18:09;;;;;;;0.00;0.00;;;;;;;8.17;61.37;99791.09;5130161;28;20039;-78
2021/05/03 05:20:38;;;;;;;0.10;0.10;;;;;;;8.29;61.34;99789.41;5123106;28;20048;-80
2021/05/03 05:23:05;;;;;;;0.10;0.10;;;;;;;8.31;61.19;99793.59;5120860;28;20134;-75
2021/05/03 05:25:32;;;;;;;0.30;0.30;;;;;;;8.48;61.33;99797.72;5115309;28;20040;-75
2021/05/03 05:27:59;;;;;;;0.10;0.10;;;;;;;8.61;61.08;99797.69;5112948;28;20048;-78
2021/05/03 05:30:26;;;;;;;1.50;1.40;;;;;;;8.61;61.08;99801.16;5116004;28;20027;-75
2021/05/03 05:32:52;;;;;;;0.10;0.10;;;;;;;8.56;60.79;99800.63;5114335;28;20150;-74
2021/05/03 05:35:19;;;;;;;0.10;0.10;;;;;;;8.82;60.96;99794.44;5114573;28;20058;-83
2021/05/03 05:37:46;;;;;;;0.40;0.40;;;;;;;8.97;60.46;99799.44;5114903;28;20116;-77
2021/05/03 05:40:13;;;;;;;0.10;0.10;;;;;;;8.98;59.97;99805.53;5115614;28;20047;-75
2021/05/03 05:42:39;;;;;;;0.13;0.13;;;;;;;8.98;59.27;99810.81;5114562;28;20043;-72
2021/05/03 05:45:06;;;;;;;0.10;0.10;;;;;;;9.06;59.75;99812.91;5114338;28;20043;-81
2021/05/03 05:47:33;;;;;;;0.03;0.03;;;;;;;9.25;59.57;99807.09;5114767;28;20047;-78
2021/05/03 05:50:00;;;;;;;0.68;0.63;;;;;;;9.39;59.53;99817.47;5112796;28;20050;-76
2021/05/03 05:52:26;;;;;;;0.10;0.10;;;;;;;9.55;59.31;99817.16;5111546;28;20091;-73
2021/05/03 05:54:54;;;;;;;0.10;0.10;;;;;;;9.50;58.65;99816.66;5111823;28;20040;-78
2021/05/03 05:57:21;;;;;;;0.20;0.20;;;;;;;9.37;57.76;99828.13;5114930;28;20619;-78
2021/05/03 05:59:56;;;;;;;10.88;1.55;;;;;;;9.45;57.88;99831.97;5115098;28;20075;-82
2021/05/03 06:02:23;;;;;;;0.00;0.00;;;;;;;9.73;57.97;99838.66;5097670;28;20122;-76
2021/05/03 06:04:49;;;;;;;0.43;0.43;;;;;;;9.79;57.42;99832.91;5110432;28;20051;-76
2021/05/03 06:07:16;;;;;;;0.00;0.00;;;;;;;9.94;57.64;99836.19;5075134;28;20151;-75
2021/05/03 06:09:42;;;;;;;0.45;0.45;;;;;;;9.90;56.92;99832.97;5108725;28;20050;-78
2021/05/03 06:12:11;;;;;;;1.00;0.95;;;;;;;9.83;56.62;99822.97;5113618;28;20058;-77
2021/05/03 06:14:37;;;;;;;0.10;0.10;;;;;;;9.68;56.24;99827.63;5111872;28;20058;-74
2021/05/03 06:17:04;;;;;;;0.10;0.10;;;;;;;9.72;56.75;99832.56;5108321;28;20047;-74
2021/05/03 06:19:30;;;;;;;0.98;0.98;;;;;;;9.75;56.11;99837.59;5111326;28;20613;-72
2021/05/03 06:21:57;;;;;;;0.20;0.20;;;;;;;9.66;55.45;99826.91;5106578;28;20410;-74
2021/05/03 06:24:23;;;;;;;5.22;3.83;;;;;;;9.57;56.44;99831.06;5109479;28;20144;-79
2021/05/03 06:26:50;;;;;;;8.20;5.53;;;;;;;9.45;56.50;99830.19;5109717;28;20422;-73
2021/05/03 06:29:17;;;;;;;7.35;4.63;;;;;;;9.29;57.37;99841.03;5107107;28;20104;-71
2021/05/03 06:31:46;;;;;;;9.32;5.55;;;;;;;9.40;57.54;99844.66;5107207;28;20127;-77
2021/05/03 06:34:12;;;;;;;7.32;5.72;;;;;;;9.45;55.82;99850.44;5109669;28;20051;-75
2021/05/03 06:36:39;;;;;;;7.95;5.47;;;;;;;9.47;55.87;99843.25;5106946;28;20047;-77
2021/05/03 06:39:06;;;;;;;8.43;5.90;;;;;;;9.48;56.93;99851.03;5107315;28;20487;-74
2021/05/03 06:41:32;;;;;;;9.15;5.47;;;;;;;9.58;55.03;99853.84;5105426;28;20048;-71
2021/05/03 06:43:58;;;;;;;7.63;4.88;;;;;;;9.49;54.59;99854.50;5108267;28;20043;-76
2021/05/03 06:46:26;;;;;;;6.68;5.25;;;;;;;9.47;54.89;99864.34;5107253;28;20513;-74
2021/05/03 06:48:52;;;;;;;6.78;4.55;;;;;;;9.62;56.65;99852.66;5108400;28;20047;-74
2021/05/03 06:51:19;;;;;;;8.18;4.72;;;;;;;9.81;55.45;99869.72;5104765;28;20054;-72
2021/05/03 06:53:45;;;;;;;7.40;4.70;;;;;;;9.76;53.39;99870.09;5105922;28;20054;-70
2021/05/03 06:56:12;;;;;;;7.78;4.65;;;;;;;9.77;53.78;99867.31;5104654;28;20056;-74
2021/05/03 06:58:38;;;;;;;7.03;4.30;;;;;;;9.73;53.03;99865.88;5104779;28;20150;-74
2021/05/03 07:01:06;;;;;;;6.90;4.72;;;;;;;9.79;53.70;99872.47;5106320;28;20189;-74
2021/05/03 07:03:33;;;;;;;7.93;5.28;;;;;;;9.88;54.19;99876.22;5105793;28;20047;-73
2021/05/03 07:05:59;;;;;;;9.75;5.82;;;;;;;9.88;53.33;99879.69;5103808;28;20244;-71
2021/05/03 07:08:26;;;;;;;8.95;5.22;;;;;;;9.92;54.99;99893.50;5103779;28;20047;-73
2021/05/03 07:10:53;;;;;;;10.45;5.97;;;;;;;9.98;53.04;99876.38;5103163;28;20193;-71
2021/05/03 07:13:21;;;;;;;7.00;4.82;;;;;;;9.89;52.20;99891.94;5103028;28;20503;-70
2021/05/03 07:15:48;;;;;;;8.82;4.68;;;;;;;9.96;53.79;99892.31;5101995;28;20614;-69
2021/05/03 07:18:14;;;;;;;9.95;6.18;;;;;;;10.10;54.00;99892.13;5103621;28;20043;-70
2021/05/03 07:20:42;;;;;;;8.63;6.28;;;;;;;10.00;52.92;99890.28;5101389;28;20051;-72
2021/05/03 07:23:09;;;;;;;7.07;6.00;;;;;;;9.65;53.42;99899.03;5051116;28;20507;-70
2021/05/03 07:25:36;;;;;;;7.00;5.53;;;;;;;9.52;54.91;99901.75;5103414;27;20415;-69
2021/05/03 07:28:03;;;;;;;8.98;6.65;;;;;;;9.43;54.29;99900.63;5105277;28;20448;-70
2021/05/03 07:30:31;;;;;;;9.50;5.88;;;;;;;9.33;54.90;99905.75;5083813;28;20084;-71
2021/05/03 07:32:57;;;;;;;9.32;6.55;;;;;;;9.26;55.07;99914.22;5103668;28;20064;-73
2021/05/03 07:35:24;;;;;;;7.82;6.22;;;;;;;9.34;55.93;99914.47;5102508;28;20526;-73
2021/05/03 07:37:51;;;;;;;8.02;6.13;;;;;;;9.44;54.55;99914.66;5091039;28;20048;-71
2021/05/03 07:40:18;;;;;;;11.77;6.43;;;;;;;9.50;54.45;99912.41;5111685;28;20047;-73
2021/05/03 07:42:45;;;;;;;8.52;6.53;;;;;;;9.57;55.10;99911.00;5106207;28;20090;-74
2021/05/03 07:45:15;;;;;;;8.73;5.82;;;;;;;9.48;54.06;99931.94;5104026;28;20043;-75
2021/05/03 07:47:41;;;;;;;11.23;5.88;;;;;;;9.29;55.25;99927.16;5067820;28;20049;-72
2021/05/03 07:50:13;;;;;;;8.60;6.38;;;;;;;9.17;55.58;99924.44;5106067;28;20043;-72
2021/05/03 07:52:41;;;;;;;8.93;6.03;;;;;;;9.19;54.91;99924.34;5106510;28;20120;-74
2021/05/03 07:55:11;;;;;;;9.07;6.50;;;;;;;9.20;54.85;99931.31;5104577;28;20040;-73
2021/05/03 07:57:38;;;;;;;8.35;4.95;;;;;;;9.27;53.96;99939.59;5102465;28;20563;-71
2021/05/03 08:00:08;;;;;;;9.05;6.93;;;;;;;9.40;53.52;99935.13;5103616;28;20047;-73
2021/05/03 08:02:36;;;;;;;8.43;5.53;;;;;;;9.59;52.27;99939.06;5086195;28;20491;-71
2021/05/03 08:05:06;;;;;;;8.07;5.95;;;;;;;9.71;51.84;99951.34;5104567;28;20044;-70
2021/05/03 08:07:33;;;;;;;7.65;5.20;;;;;;;9.71;51.01;99943.44;5103784;28;20050;-71
2021/05/03 08:09:59;;;;;;;7.72;5.22;;;;;;;9.60;50.97;99949.50;5103641;28;20043;-72
2021/05/03 08:12:28;;;;;;;6.13;4.93;;;;;;;9.37;52.08;99959.91;5103607;28;20579;-76
2021/05/03 08:14:58;;;;;;;8.48;5.32;;;;;;;9.25;51.95;99957.31;5104526;28;20052;-72
2021/05/03 08:17:25;;;;;;;7.28;5.40;;;;;;;9.20;52.23;99962.94;5099022;28;20055;-70
2021/05/03 08:19:51;;;;;;;5.00;3.80;;;;;;;9.39;50.52;99970.34;5101112;28;20055;-71
2021/05/03 08:22:18;;;;;;;6.35;4.45;;;;;;;9.65;50.93;99979.00;5099172;28;20047;-68
2021/05/03 08:24:44;;;;;;;7.28;5.25;;;;;;;9.91;50.93;99976.25;5099231;28;20086;-71
2021/05/03 08:27:13;;;;;;;5.63;3.50;;;;;;;10.34;50.59;99973.06;5103959;28;20039;-70
2021/05/03 08:29:43;;;;;;;10.05;5.10;;;;;;;10.25;49.28;99976.38;5100306;28;20047;-74
2021/05/03 08:32:10;;;;;;;6.78;3.40;;;;;;;10.07;47.72;99974.13;5085247;28;20059;-73
2021/05/03 08:34:36;;;;;;;7.25;5.28;;;;;;;10.06;46.83;99987.44;5105101;28;20051;-72
2021/05/03 08:37:03;;;;;;;10.23;6.18;;;;;;;10.00;46.96;99986.09;5099931;28;20035;-71
2021/05/03 08:39:29;;;;;;;13.85;8.15;;;;;;;10.00;45.64;99993.19;5107690;28;20044;-70
2021/05/03 08:41:59;;;;;;;9.40;6.20;;;;;;;10.00;47.16;99994.03;5103388;28;20107;-73
2021/05/03 08:44:27;;;;;;;8.63;5.05;;;;;;;9.94;49.31;99997.13;5102694;28;20099;-72
2021/05/03 08:46:55;;;;;;;6.68;4.57;;;;;;;9.77;50.90;100001.81;5101300;28;20069;-71
2021/05/03 08:49:27;;;;;;;9.02;5.63;;;;;;;9.68;50.90;100005.13;5105265;28;20158;-73
2021/05/03 08:52:02;;;;;;;13.32;5.07;;;;;;;9.93;51.17;100000.72;5103883;28;20055;-72
2021/05/03 08:54:34;;;;;;;7.28;4.90;;;;;;;10.11;49.45;100001.97;5053650;28;20047;-71
2021/05/03 08:57:00;;;;;;;7.38;4.43;;;;;;;10.22;47.96;100001.16;5106727;28;20047;-72
2021/05/03 08:59:28;;;;;;;3.60;3.10;;;;;;;10.44;47.28;100008.38;5088226;28;20054;-73
2021/05/03 09:01:57;;;;;;;7.35;4.05;;;;;;;10.49;47.36;100000.91;5085776;28;20108;-72
2021/05/03 09:04:24;;;;;;;7.43;4.30;;;;;;;10.61;47.29;100011.53;5105957;28;20127;-69
2021/05/03 09:07:15;;;;;;;4.47;3.13;;;;;;;10.78;44.85;100003.13;5106285;28;20047;-73
2021/05/03 09:09:47;;;;;;;3.80;2.92;;;;;;;10.74;46.23;100009.59;5101345;28;20321;-72
2021/05/03 09:12:16;;;;;;;4.10;2.13;;;;;;;11.27;45.40;100001.94;5106795;28;20047;-72
2021/05/03 09:14:48;;;;;;;3.83;2.85;;;;;;;11.18;45.11;100002.66;5105707;28;20523;-72
2021/05/03 09:17:25;;;;;;;5.10;2.10;;;;;;;11.21;45.10;100002.41;5088033;28;20047;-76
2021/05/03 09:19:52;;;;;;;6.50;3.88;;;;;;;11.08;45.11;100001.69;5109055;28;20116;-69
2021/05/03 09:22:31;;;;;;;6.50;3.67;;;;;;;10.90;43.61;99999.53;5107864;28;20043;-72
2021/05/03 09:25:23;;;;;;;4.45;3.22;;;;;;;10.80;45.84;100000.34;5106334;28;20127;-73
2021/05/03 09:28:03;;;;;;;6.97;4.07;;;;;;;10.83;45.01;100002.78;5123848;28;20044;-70
2021/05/03 09:30:35;;;;;;;7.40;3.72;;;;;;;10.86;45.25;100000.72;5110337;28;20062;-75
2021/05/03 09:33:18;;;;;;;5.90;3.70;;;;;;;11.17;45.75;100008.06;5106840;28;20096;-69
2021/05/03 09:35:47;;;;;;;6.05;3.80;;;;;;;11.83;46.04;100005.41;5104364;28;20474;-71
2021/05/03 09:38:32;;;;;;;7.13;4.43;;;;;;;12.02;45.37;100010.88;5102284;28;20134;-69
2021/05/03 09:41:13;;;;;;;6.80;4.43;;;;;;;11.54;45.95;100013.91;5102059;28;20114;-70
2021/05/03 09:43:43;;;;;;;8.18;3.88;;;;;;;11.38;46.92;100016.06;5103750;28;20044;-70
2021/05/03 09:46:34;;;;;;;8.35;4.15;;;;;;;11.20;47.31;100016.59;5102846;28;20547;-70
2021/05/03 09:49:06;;;;;;;8.07;3.55;;;;;;;11.12;48.87;100029.56;5099507;28;20055;-69
2021/05/03 09:51:37;;;;;;;5.05;3.65;;;;;;;11.20;48.95;100031.59;5103029;28;20077;-69
2021/05/03 09:54:07;;;;;;;7.05;4.25;;;;;;;11.27;50.17;100031.00;5101915;28;20576;-67
2021/05/03 09:56:54;;;;;;;8.07;4.93;;;;;;;11.66;49.33;100028.78;5102245;28;20494;-69
2021/05/03 09:59:32;;;;;;;8.32;4.75;;;;;;;12.09;49.06;100037.72;5103141;28;20044;-69
2021/05/03 10:02:07;;;;;;;6.63;5.32;;;;;;;12.01;48.46;100043.63;5104575;28;20040;-68
2021/05/03 10:04:36;;;;;;;9.20;5.20;;;;;;;10.98;50.37;100051.78;5103446;28;20044;-67
2021/05/03 10:07:07;;;;;;;6.63;4.68;;;;;;;10.33;51.62;100046.13;5101095;28;20126;-69
2021/05/03 10:09:34;;;;;;;7.00;4.50;;;;;;;10.52;51.96;100040.28;5101927;28;20126;-69
2021/05/03 10:12:00;;;;;;;7.60;5.25;;;;;;;10.69;51.71;100044.28;5103100;28;20126;-70
2021/05/03 10:14:29;;;;;;;8.23;4.80;;;;;;;10.76;52.59;100049.94;5102065;27;20054;-70
2021/05/03 10:16:58;;;;;;;7.28;4.90;;;;;;;10.95;52.23;100043.25;5102096;28;20059;-69
2021/05/03 10:19:25;;;;;;;8.18;5.28;;;;;;;11.00;51.51;100035.81;5103797;28;20048;-73
2021/05/03 10:21:52;;;;;;;12.70;6.88;;;;;;;10.99;51.57;100034.13;5106693;28;20066;-75
2021/05/03 10:24:20;;;;;;;9.13;5.40;;;;;;;11.27;50.64;100031.00;5104517;28;20121;-72
2021/05/03 10:26:51;;;;;;;7.63;4.78;;;;;;;11.23;49.90;100036.66;5104007;28;20051;-71
2021/05/03 10:29:39;;;;;;;6.53;5.70;;;;;;;11.22;48.80;100041.09;5101486;28;20052;-67
2021/05/03 10:32:09;;;;;;;9.18;5.80;;;;;;;10.64;51.08;100037.66;5095556;28;20047;-67
2021/05/03 10:34:49;;;;;;;9.10;5.30;;;;;;;9.99;53.15;100044.25;5102907;28;20047;-67
2021/05/03 10:37:44;;;;;;;10.43;5.68;;;;;;;9.85;54.57;100042.63;5102553;28;20051;-68
2021/05/03 10:40:47;;;;;;;9.02;4.50;;;;;;;9.83;55.44;100050.69;5058809;28;20080;-70
2021/05/03 10:43:18;;;;;;;5.93;4.55;;;;;;;10.08;54.01;100044.44;5057300;28;20052;-69
2021/05/03 10:48:37;;;;;;;8.07;5.30;;;;;;;10.19;52.81;100055.97;5016547;28;20329;-68
2021/05/03 10:51:08;;;;;;;9.63;6.57;;;;;;;10.41;52.76;100069.31;5017812;28;20673;-71
2021/05/03 10:53:39;;;;;;;10.15;6.28;;;;;;;10.62;51.72;100058.91;5016969;28;20045;-69
2021/05/03 10:56:10;;;;;;;7.88;4.28;;;;;;;10.45;51.33;100062.00;5018978;28;20125;-68
2021/05/03 10:59:09;;;;;;;7.00;3.75;;;;;;;10.57;51.50;100060.22;5018030;28;20128;-68
2021/05/03 11:02:06;;;;;;;7.50;4.45;;;;;;;10.64;50.91;100064.94;5017856;28;20053;-67
2021/05/03 11:04:33;;;;;;;6.05;4.28;;;;;;;10.58;50.57;100067.19;5016869;28;20049;-69
2021/05/03 11:07:14;;;;;;;6.65;4.45;;;;;;;10.67;51.10;100067.34;5000861;28;20131;-69
2021/05/03 11:09:42;;;;;;;8.13;4.07;;;;;;;10.66;51.11;100064.81;5017719;28;20544;-71
2021/05/03 11:12:33;;;;;;;5.47;2.95;;;;;;;10.68;51.49;100076.97;5017378;28;20053;-69
2021/05/03 11:15:26;;;;;;;6.53;4.00;;;;;;;10.62;51.06;100076.56;5019723;28;20088;-75
2021/05/03 11:18:26;;;;;;;5.00;3.05;;;;;;;10.51;50.68;100067.69;5040351;28;20045;-72
2021/05/03 11:21:04;;;;;;;4.47;2.30;;;;;;;11.04;50.58;100071.63;5034848;28;20049;-69
2021/05/03 11:23:34;;;;;;;4.47;2.70;;;;;;;11.57;49.71;100061.25;5037105;28;20787;-70
2021/05/03 11:26:03;;;;;;;5.90;2.47;;;;;;;11.92;49.43;100065.56;5073186;28;20043;-69
2021/05/03 11:28:33;;;;;;;5.90;3.40;;;;;;;12.29;48.66;100072.28;5100905;28;20131;-73
2021/05/03 11:31:13;;;;;;;3.15;2.28;;;;;;;12.29;47.13;100067.84;5100566;28;20048;-71
2021/05/03 11:33:42;;;;;;;4.47;3.15;;;;;;;12.84;47.05;100077.41;5102719;28;20579;-70
2021/05/03 11:36:16;;;;;;;4.25;2.75;;;;;;;13.41;46.30;100070.75;5103299;28;20044;-71
2021/05/03 11:38:56;;;;;;;8.80;4.32;;;;;;;13.40;44.53;100066.44;5099942;28;20048;-71
2021/05/03 11:41:33;;;;;;;4.30;2.90;;;;;;;13.14;45.93;100064.22;5099878;28;20050;-70
2021/05/03 11:44:12;;;;;;;6.45;3.65;;;;;;;13.28;45.15;100070.13;5110627;27;20044;-71
2021/05/03 11:46:39;;;;;;;7.82;4.30;;;;;;;12.74;44.68;100059.66;5119182;27;20493;-69
2021/05/03 11:49:17;;;;;;;6.50;4.75;;;;;;;12.57;45.27;100066.38;5119175;27;20689;-70
2021/05/03 11:51:45;;;;;;;9.70;4.30;;;;;;;12.48;44.76;100067.16;5119852;27;20051;-70
2021/05/03 11:54:29;;;;;;;4.32;3.60;;;;;;;12.45;45.08;100070.06;5119541;27;20050;-71
2021/05/03 11:56:58;;;;;;;5.88;3.30;;;;;;;12.48;46.02;100082.19;5120942;27;20043;-69